Time;durP1;ratioP1;P1;durP2;ratioP2;P2;SDS_P1;SDS_P2;PMS_P1;PMS_P2;Temp;Humidity;BMP_temperature;BMP_pressure;BME280_temperature;BME280_humidity;BME280_pressure;Samples;Min_cycle;Max_cycle;Signal;HPM_P1;HPM_P2
2022/03/16 00:01:01;;;;;;;19.85;8.18;;;;;;;;;;5093285;28;20047;-45
2022/03/16 00:03:26;;;;;;;24.52;7.47;;;;;;;;;;5093665;28;20048;-44
2022/03/16 00:05:53;;;;;;;18.58;7.10;;;;;;;;;;5091932;28;20122;-45
2022/03/16 00:08:19;;;;;;;33.10;7.72;;;;;;;;;;5092471;28;20110;-45
2022/03/16 00:10:44;;;;;;;10.57;5.88;;;;;;;;;;5094374;28;20586;-43
2022/03/16 00:13:10;;;;;;;16.88;8.15;;;;;;;;;;5093494;28;20397;-48
2022/03/16 00:15:35;;;;;;;17.98;6.30;;;;;;;;;;5094327;28;20054;-46
2022/03/16 00:18:00;;;;;;;34.70;9.35;;;;;;;;;;5095328;28;20048;-45
2022/03/16 00:20:26;;;;;;;27.70;7.85;;;;;;;;;;5095338;28;20039;-45
2022/03/16 00:22:51;;;;;;;22.70;7.53;;;;;;;;;;5097018;28;20040;-43
2022/03/16 00:25:16;;;;;;;16.75;7.30;;;;;;;;;;5092971;28;20132;-43
2022/03/16 00:27:42;;;;;;;32.75;9.18;;;;;;;;;;5091451;28;20054;-45
2022/03/16 00:30:07;;;;;;;50.92;11.13;;;;;;;;;;5093496;28;20056;-43
2022/03/16 00:32:33;;;;;;;27.75;10.30;;;;;;;;;;5090957;28;20048;-43
2022/03/16 00:34:58;;;;;;;28.65;9.57;;;;;;;;;;5093571;28;20044;-45
2022/03/16 00:37:23;;;;;;;24.08;9.88;;;;;;;;;;5092810;28;20301;-45
2022/03/16 00:39:49;;;;;;;15.85;8.40;;;;;;;;;;5094411;28;20079;-44
2022/03/16 00:42:14;;;;;;;17.25;9.38;;;;;;;;;;5096369;28;20494;-43
2022/03/16 00:44:39;;;;;;;18.58;10.00;;;;;;;;;;5095330;28;20492;-43
2022/03/16 00:47:05;;;;;;;21.38;9.63;;;;;;;;;;5095423;28;20047;-42
2022/03/16 00:49:30;;;;;;;29.80;8.57;;;;;;;;;;5095444;28;20136;-44
2022/03/16 00:51:55;;;;;;;20.52;9.88;;;;;;;;;;5095018;28;20121;-43
2022/03/16 00:54:21;;;;;;;35.67;9.65;;;;;;;;;;5094548;28;20054;-45
2022/03/16 00:56:46;;;;;;;18.00;9.68;;;;;;;;;;5091485;28;20056;-45
2022/03/16 00:59:11;;;;;;;24.38;9.32;;;;;;;;;;5091765;28;20043;-48
2022/03/16 01:01:37;;;;;;;26.33;11.05;;;;;;;;;;5093031;28;21571;-45
2022/03/16 01:04:02;;;;;;;13.75;8.32;;;;;;;;;;5095740;28;20648;-42
2022/03/16 01:06:28;;;;;;;35.50;9.68;;;;;;;;;;5093303;28;20129;-42
2022/03/16 01:08:53;;;;;;;27.50;10.93;;;;;;;;;;5094099;28;20060;-42
2022/03/16 01:11:18;;;;;;;18.60;7.63;;;;;;;;;;5094099;28;20151;-44
2022/03/16 01:13:43;;;;;;;25.92;8.82;;;;;;;;;;5093185;28;20058;-44
2022/03/16 01:16:09;;;;;;;33.20;9.45;;;;;;;;;;5094029;28;20063;-47
2022/03/16 01:18:34;;;;;;;24.38;10.65;;;;;;;;;;5092281;28;20044;-46
2022/03/16 01:20:59;;;;;;;28.55;10.32;;;;;;;;;;5091775;28;20044;-46
2022/03/16 01:23:25;;;;;;;24.38;8.77;;;;;;;;;;5094053;28;20044;-43
2022/03/16 01:25:50;;;;;;;25.17;9.27;;;;;;;;;;5091161;28;20140;-46
2022/03/16 01:28:16;;;;;;;26.20;8.20;;;;;;;;;;5093565;28;20616;-44
2022/03/16 01:30:42;;;;;;;35.15;9.45;;;;;;;;;;5093061;28;20578;-43
2022/03/16 01:33:08;;;;;;;14.52;7.10;;;;;;;;;;5091261;28;20400;-44
2022/03/16 01:35:33;;;;;;;29.48;9.85;;;;;;;;;;5092761;28;20528;-47
2022/03/16 01:37:58;;;;;;;41.25;7.88;;;;;;;;;;5093327;28;20052;-45
2022/03/16 01:40:24;;;;;;;28.90;9.45;;;;;;;;;;5096273;28;20452;-48
2022/03/16 01:42:49;;;;;;;22.55;8.75;;;;;;;;;;5097508;28;20123;-43
2022/03/16 01:45:14;;;;;;;23.58;9.95;;;;;;;;;;5094958;28;20067;-44
2022/03/16 01:47:40;;;;;;;23.35;8.23;;;;;;;;;;5096717;28;20046;-48
2022/03/16 01:50:06;;;;;;;14.95;7.63;;;;;;;;;;5094755;28;20440;-44
2022/03/16 01:52:32;;;;;;;14.05;7.35;;;;;;;;;;5095981;28;20055;-43
2022/03/16 01:54:58;;;;;;;24.52;8.60;;;;;;;;;;5095757;28;20051;-43
2022/03/16 01:57:24;;;;;;;23.67;8.82;;;;;;;;;;5098802;28;20054;-43
2022/03/16 01:59:49;;;;;;;23.33;7.80;;;;;;;;;;5093224;28;20032;-46
2022/03/16 02:02:15;;;;;;;21.00;7.80;;;;;;;;;;5100122;28;20086;-46
2022/03/16 02:04:40;;;;;;;23.67;9.32;;;;;;;;;;5098402;28;20448;-43
2022/03/16 02:07:06;;;;;;;24.30;7.60;;;;;;;;;;5098342;28;20777;-44
2022/03/16 02:09:32;;;;;;;13.52;8.13;;;;;;;;;;5096580;28;20542;-43
2022/03/16 02:11:58;;;;;;;24.92;6.63;;;;;;;;;;5094542;28;20071;-46
2022/03/16 02:14:23;;;;;;;19.05;9.05;;;;;;;;;;5094080;28;20124;-45
2022/03/16 02:16:49;;;;;;;29.08;9.93;;;;;;;;;;5095864;28;20047;-43
2022/03/16 02:19:15;;;;;;;28.75;9.30;;;;;;;;;;5094061;28;20044;-45
2022/03/16 02:21:40;;;;;;;22.27;11.13;;;;;;;;;;5095857;28;20050;-43
2022/03/16 02:24:06;;;;;;;20.10;8.60;;;;;;;;;;5095423;28;20093;-43
2022/03/16 02:26:32;;;;;;;18.73;8.02;;;;;;;;;;5098681;28;20082;-46
2022/03/16 02:28:57;;;;;;;23.38;8.55;;;;;;;;;;5096805;28;20047;-45
2022/03/16 02:31:23;;;;;;;26.38;10.55;;;;;;;;;;5098681;27;20562;-46
2022/03/16 02:33:48;;;;;;;20.13;8.45;;;;;;;;;;5091427;28;20451;-46
2022/03/16 02:36:14;;;;;;;18.35;8.23;;;;;;;;;;5094835;28;20107;-43
2022/03/16 02:38:39;;;;;;;25.88;10.02;;;;;;;;;;5096315;28;20497;-45
2022/03/16 02:41:04;;;;;;;23.70;10.02;;;;;;;;;;5108916;27;20051;-47
2022/03/16 02:43:30;;;;;;;30.02;9.07;;;;;;;;;;5095599;28;20043;-43
2022/03/16 02:45:55;;;;;;;23.63;9.85;;;;;;;;;;5092099;28;20124;-43
2022/03/16 02:48:20;;;;;;;24.63;9.02;;;;;;;;;;5093573;28;20047;-43
2022/03/16 02:50:46;;;;;;;19.90;8.27;;;;;;;;;;5096731;28;20058;-44
2022/03/16 02:53:12;;;;;;;30.33;11.00;;;;;;;;;;5094348;28;20175;-44
2022/03/16 02:55:37;;;;;;;20.65;9.73;;;;;;;;;;5094712;28;20136;-45
2022/03/16 02:58:03;;;;;;;16.38;7.60;;;;;;;;;;5097159;28;20070;-44
2022/03/16 03:00:28;;;;;;;22.73;7.35;;;;;;;;;;5093893;28;20047;-45
2022/03/16 03:02:54;;;;;;;14.75;7.65;;;;;;;;;;5096390;28;20458;-48
2022/03/16 03:05:19;;;;;;;16.88;6.32;;;;;;;;;;5097367;28;20135;-46
2022/03/16 03:07:45;;;;;;;30.50;9.38;;;;;;;;;;5095635;28;20098;-49
2022/03/16 03:10:10;;;;;;;29.27;8.80;;;;;;;;;;5094512;28;20463;-47
2022/03/16 03:12:35;;;;;;;17.50;9.25;;;;;;;;;;5095017;28;20036;-48
2022/03/16 03:15:02;;;;;;;20.52;8.57;;;;;;;;;;5096543;27;20043;-48
2022/03/16 03:17:27;;;;;;;22.83;8.30;;;;;;;;;;5096717;28;20036;-47
2022/03/16 03:19:52;;;;;;;16.05;6.10;;;;;;;;;;5101363;28;20071;-45
2022/03/16 03:22:18;;;;;;;11.75;6.90;;;;;;;;;;5100414;28;20051;-49
2022/03/16 03:24:44;;;;;;;30.40;14.40;;;;;;;;;;5094264;28;20626;-47
2022/03/16 03:27:10;;;;;;;35.65;12.05;;;;;;;;;;5094164;28;20048;-46
2022/03/16 03:29:35;;;;;;;36.33;11.07;;;;;;;;;;5092875;28;20607;-49
2022/03/16 03:32:00;;;;;;;25.27;10.80;;;;;;;;;;5094775;28;20052;-44
2022/03/16 03:34:26;;;;;;;23.70;10.68;;;;;;;;;;5096206;28;20047;-44
2022/03/16 03:36:51;;;;;;;21.67;10.50;;;;;;;;;;5094588;28;20764;-46
2022/03/16 03:39:16;;;;;;;32.47;9.68;;;;;;;;;;5096255;28;20131;-44
2022/03/16 03:41:43;;;;;;;24.10;8.48;;;;;;;;;;5092706;28;20044;-43
2022/03/16 03:44:08;;;;;;;21.83;8.20;;;;;;;;;;5092871;28;20179;-44
2022/03/16 03:46:33;;;;;;;22.10;8.38;;;;;;;;;;5095528;28;20035;-45
2022/03/16 03:48:59;;;;;;;27.80;8.80;;;;;;;;;;5094664;28;20051;-43
2022/03/16 03:51:24;;;;;;;22.15;7.38;;;;;;;;;;5095165;28;20438;-43
2022/03/16 03:53:49;;;;;;;16.15;9.40;;;;;;;;;;5093437;28;20077;-43
2022/03/16 03:56:15;;;;;;;29.75;8.07;;;;;;;;;;5095219;28;20079;-45
2022/03/16 03:58:40;;;;;;;33.83;7.13;;;;;;;;;;5093820;27;20223;-44
2022/03/16 04:01:06;;;;;;;31.27;10.48;;;;;;;;;;5090886;28;20052;-44
2022/03/16 04:03:31;;;;;;;24.98;8.40;;;;;;;;;;5094264;28;20119;-44
2022/03/16 04:05:57;;;;;;;28.00;6.13;;;;;;;;;;5094249;28;20516;-45
2022/03/16 04:08:22;;;;;;;21.98;8.88;;;;;;;;;;5094920;28;20048;-41
2022/03/16 04:10:47;;;;;;;24.60;6.03;;;;;;;;;;5092335;28;20054;-42
2022/03/16 04:13:13;;;;;;;15.95;7.10;;;;;;;;;;5095584;28;20054;-41
2022/03/16 04:15:38;;;;;;;22.17;6.80;;;;;;;;;;5094723;28;20036;-43
2022/03/16 04:18:03;;;;;;;12.55;6.20;;;;;;;;;;5091257;28;20051;-44
2022/03/16 04:20:29;;;;;;;14.35;7.57;;;;;;;;;;5093283;28;20039;-44
2022/03/16 04:22:54;;;;;;;21.33;7.90;;;;;;;;;;5094913;28;20043;-46
2022/03/16 04:25:19;;;;;;;30.38;10.52;;;;;;;;;;5097550;28;20083;-45
2022/03/16 04:27:45;;;;;;;18.48;6.65;;;;;;;;;;5094712;28;20051;-41
2022/03/16 04:30:11;;;;;;;23.42;7.00;;;;;;;;;;5095899;28;20517;-41
2022/03/16 04:32:36;;;;;;;19.15;7.18;;;;;;;;;;5096032;28;20051;-41
2022/03/16 04:35:01;;;;;;;21.20;8.27;;;;;;;;;;5092989;28;20059;-43
2022/03/16 04:37:27;;;;;;;23.17;7.63;;;;;;;;;;5095823;28;20044;-42
2022/03/16 04:39:52;;;;;;;20.85;6.03;;;;;;;;;;5094481;28;20052;-42
2022/03/16 04:42:17;;;;;;;22.73;8.10;;;;;;;;;;5093436;28;20547;-44
2022/03/16 04:44:43;;;;;;;17.23;6.13;;;;;;;;;;5096745;28;20043;-42
2022/03/16 04:47:08;;;;;;;15.02;7.53;;;;;;;;;;5093146;28;20054;-46
2022/03/16 04:49:33;;;;;;;14.90;6.63;;;;;;;;;;5095850;28;20074;-44
2022/03/16 04:51:59;;;;;;;13.82;6.72;;;;;;;;;;5096615;28;20098;-42
2022/03/16 04:54:24;;;;;;;19.63;9.23;;;;;;;;;;5096788;28;20386;-42
2022/03/16 04:56:49;;;;;;;21.83;6.88;;;;;;;;;;5095345;28;20046;-44
2022/03/16 04:59:15;;;;;;;12.05;6.53;;;;;;;;;;5096673;28;20387;-45
2022/03/16 05:01:40;;;;;;;14.05;8.35;;;;;;;;;;5095178;28;20395;-43
2022/03/16 05:04:06;;;;;;;11.98;6.65;;;;;;;;;;5095648;28;20619;-43
2022/03/16 05:06:31;;;;;;;33.85;7.80;;;;;;;;;;5096562;28;20048;-43
2022/03/16 05:08:56;;;;;;;12.55;6.63;;;;;;;;;;5095563;28;20040;-46
2022/03/16 05:11:22;;;;;;;10.35;5.60;;;;;;;;;;5097695;28;20121;-46
2022/03/16 05:13:48;;;;;;;15.85;7.82;;;;;;;;;;5096275;28;20059;-43
2022/03/16 05:16:13;;;;;;;11.23;5.93;;;;;;;;;;5098191;28;20052;-45
2022/03/16 05:18:40;;;;;;;14.98;5.28;;;;;;;;;;5099431;28;20663;-43
2022/03/16 05:21:08;;;;;;;14.20;6.10;;;;;;;;;;5098338;28;20051;-44
2022/03/16 05:23:33;;;;;;;15.10;7.07;;;;;;;;;;5100016;28;20058;-43
2022/03/16 05:25:59;;;;;;;12.20;5.95;;;;;;;;;;5099583;28;20040;-42
2022/03/16 05:28:24;;;;;;;17.63;5.50;;;;;;;;;;5100347;28;20054;-44
2022/03/16 05:30:49;;;;;;;17.40;6.07;;;;;;;;;;5100410;28;20039;-43
2022/03/16 05:33:15;;;;;;;18.23;5.78;;;;;;;;;;5097640;28;20119;-44
2022/03/16 05:35:43;;;;;;;20.30;6.30;;;;;;;;;;5101601;28;20131;-42
2022/03/16 05:38:12;;;;;;;12.10;5.55;;;;;;;;;;5100669;28;20078;-46
2022/03/16 05:40:38;;;;;;;12.80;5.30;;;;;;;;;;5099715;28;20578;-44
2022/03/16 05:43:03;;;;;;;11.75;5.65;;;;;;;;;;5100025;28;20166;-46
2022/03/16 05:45:29;;;;;;;11.85;5.72;;;;;;;;;;5098298;28;20138;-44
2022/03/16 05:47:54;;;;;;;13.07;3.60;;;;;;;;;;5098680;28;20391;-44
2022/03/16 05:50:20;;;;;;;12.60;4.88;;;;;;;;;;5099745;28;20046;-42
2022/03/16 05:52:46;;;;;;;10.00;5.28;;;;;;;;;;5098782;28;20430;-43
2022/03/16 05:55:13;;;;;;;8.98;3.65;;;;;;;;;;5099145;28;20047;-45
2022/03/16 05:57:39;;;;;;;10.07;3.13;;;;;;;;;;5098064;28;20043;-44
2022/03/16 06:00:06;;;;;;;18.42;4.00;;;;;;;;;;5102136;28;20503;-44
2022/03/16 06:02:31;;;;;;;4.97;2.80;;;;;;;;;;5098809;28;20047;-43
2022/03/16 06:04:56;;;;;;;20.20;5.25;;;;;;;;;;5097339;28;20047;-48
2022/03/16 06:07:22;;;;;;;9.07;5.60;;;;;;;;;;5097813;28;20070;-44
2022/03/16 06:09:47;;;;;;;12.00;5.18;;;;;;;;;;5101140;28;20040;-45
2022/03/16 06:12:13;;;;;;;18.83;5.78;;;;;;;;;;5094989;28;20048;-45
2022/03/16 06:14:38;;;;;;;22.15;6.03;;;;;;;;;;5097960;28;20063;-47
2022/03/16 06:17:04;;;;;;;13.02;6.18;;;;;;;;;;5097001;28;20415;-43
2022/03/16 06:19:29;;;;;;;8.98;6.10;;;;;;;;;;5096424;28;20055;-43
2022/03/16 06:21:54;;;;;;;30.95;7.82;;;;;;;;;;5099676;28;20047;-44
2022/03/16 06:24:19;;;;;;;16.30;7.07;;;;;;;;;;5098056;28;20036;-44
2022/03/16 06:26:45;;;;;;;14.15;7.78;;;;;;;;;;5098394;28;20508;-43
2022/03/16 06:29:10;;;;;;;14.32;9.30;;;;;;;;;;5099806;28;20055;-42
2022/03/16 06:31:36;;;;;;;18.30;8.90;;;;;;;;;;5097366;28;20534;-43
2022/03/16 06:34:01;;;;;;;14.88;8.35;;;;;;;;;;5096060;28;20514;-41
2022/03/16 06:36:26;;;;;;;30.95;10.93;;;;;;;;;;5097183;28;20043;-46
2022/03/16 06:38:52;;;;;;;22.17;10.15;;;;;;;;;;5097223;28;20077;-46
2022/03/16 06:41:17;;;;;;;17.25;11.30;;;;;;;;;;5101934;28;20130;-47
2022/03/16 06:43:43;;;;;;;17.27;8.52;;;;;;;;;;5099721;28;20036;-44
2022/03/16 06:46:08;;;;;;;31.67;9.75;;;;;;;;;;5097480;28;20036;-45
2022/03/16 06:48:33;;;;;;;31.20;10.15;;;;;;;;;;5097923;28;20037;-44
2022/03/16 06:50:59;;;;;;;13.73;7.05;;;;;;;;;;5098952;28;20051;-43
2022/03/16 06:53:24;;;;;;;17.55;9.07;;;;;;;;;;5098199;28;20039;-43
2022/03/16 06:55:50;;;;;;;17.88;8.30;;;;;;;;;;5098372;28;20104;-41
2022/03/16 06:58:15;;;;;;;24.17;9.02;;;;;;;;;;5100687;28;20052;-42
2022/03/16 07:00:40;;;;;;;30.00;7.57;;;;;;;;;;5101105;28;20093;-42
2022/03/16 07:03:06;;;;;;;28.80;10.60;;;;;;;;;;5095743;28;20072;-43
2022/03/16 07:05:35;;;;;;;24.90;8.27;;;;;;;;;;5097769;28;20524;-42
2022/03/16 07:08:02;;;;;;;25.15;8.05;;;;;;;;;;5098493;28;20037;-44
2022/03/16 07:10:28;;;;;;;26.88;7.68;;;;;;;;;;5096987;28;20044;-45
2022/03/16 07:12:53;;;;;;;23.30;8.93;;;;;;;;;;5096077;28;20112;-45
2022/03/16 07:15:19;;;;;;;43.55;9.15;;;;;;;;;;5097304;28;20127;-43
2022/03/16 07:17:44;;;;;;;27.88;10.35;;;;;;;;;;5097884;28;20499;-45
2022/03/16 07:20:10;;;;;;;17.00;9.13;;;;;;;;;;5098422;28;20104;-45
2022/03/16 07:22:36;;;;;;;22.67;9.15;;;;;;;;;;5097472;28;20535;-44
2022/03/16 07:25:04;;;;;;;19.40;9.18;;;;;;;;;;5097379;28;20177;-43
2022/03/16 07:27:30;;;;;;;28.58;9.75;;;;;;;;;;5096607;28;20039;-43
2022/03/16 07:29:55;;;;;;;37.70;12.10;;;;;;;;;;5098595;28;20120;-43
2022/03/16 07:32:20;;;;;;;36.70;14.57;;;;;;;;;;5097763;28;20308;-45
2022/03/16 07:34:46;;;;;;;46.97;12.02;;;;;;;;;;5094920;28;20101;-43
2022/03/16 07:37:11;;;;;;;52.13;16.63;;;;;;;;;;5094981;28;20075;-47
2022/03/16 07:39:37;;;;;;;29.08;17.05;;;;;;;;;;5096070;28;20035;-48
2022/03/16 07:42:02;;;;;;;25.75;17.27;;;;;;;;;;5095402;28;20135;-54
2022/03/16 07:44:27;;;;;;;71.50;26.92;;;;;;;;;;5095897;28;20598;-58
2022/03/16 07:46:53;;;;;;;23.77;12.77;;;;;;;;;;5093831;28;20046;-60
2022/03/16 07:49:18;;;;;;;32.35;16.23;;;;;;;;;;5095120;28;20051;-59
2022/03/16 07:51:43;;;;;;;34.40;13.98;;;;;;;;;;5097093;28;20043;-58
2022/03/16 07:54:09;;;;;;;27.70;13.68;;;;;;;;;;5095671;28;20043;-61
2022/03/16 07:56:34;;;;;;;31.27;10.55;;;;;;;;;;5094981;28;20079;-54
2022/03/16 07:59:01;;;;;;;24.88;11.00;;;;;;;;;;5097375;28;20044;-57
2022/03/16 08:01:26;;;;;;;55.28;14.40;;;;;;;;;;5097659;28;20043;-58
2022/03/16 08:03:52;;;;;;;29.92;13.65;;;;;;;;;;5094823;28;20039;-61
2022/03/16 08:06:17;;;;;;;36.67;14.13;;;;;;;;;;5095895;28;20039;-62
2022/03/16 08:08:42;;;;;;;22.67;8.40;;;;;;;;;;5092631;28;20486;-61
2022/03/16 08:11:07;;;;;;;35.28;11.85;;;;;;;;;;5092217;28;20507;-60
2022/03/16 08:13:34;;;;;;;34.15;15.90;;;;;;;;;;5097144;28;20044;-57
2022/03/16 08:15:59;;;;;;;43.92;13.63;;;;;;;;;;5098220;28;20094;-61
2022/03/16 08:18:24;;;;;;;31.65;12.57;;;;;;;;;;5094581;28;20091;-62
2022/03/16 08:20:50;;;;;;;67.18;17.90;;;;;;;;;;5096590;28;20054;-60
2022/03/16 08:23:15;;;;;;;62.45;14.80;;;;;;;;;;5097836;28;20588;-59
2022/03/16 08:25:40;;;;;;;42.95;13.93;;;;;;;;;;5094889;28;20035;-58
2022/03/16 08:28:06;;;;;;;44.13;13.90;;;;;;;;;;5095193;28;20121;-59
2022/03/16 08:30:34;;;;;;;30.02;13.07;;;;;;;;;;5094756;28;20056;-59
2022/03/16 08:32:59;;;;;;;37.88;13.98;;;;;;;;;;5097199;28;20112;-60
2022/03/16 08:35:25;;;;;;;55.50;14.07;;;;;;;;;;5096267;28;20466;-60
2022/03/16 08:37:50;;;;;;;57.30;27.95;;;;;;;;;;5094641;28;20052;-60
2022/03/16 08:40:16;;;;;;;37.85;17.25;;;;;;;;;;5095386;28;20047;-60
2022/03/16 08:42:42;;;;;;;60.03;19.27;;;;;;;;;;5095610;28;20035;-60
2022/03/16 08:45:07;;;;;;;58.45;20.67;;;;;;;;;;5097371;28;20753;-60
2022/03/16 08:47:33;;;;;;;33.53;16.85;;;;;;;;;;5097367;28;20118;-60
2022/03/16 08:49:58;;;;;;;28.23;13.45;;;;;;;;;;5099531;28;20081;-60
2022/03/16 08:52:23;;;;;;;51.72;20.80;;;;;;;;;;5101268;28;20514;-60
2022/03/16 08:54:50;;;;;;;42.75;20.80;;;;;;;;;;5099913;28;20142;-61
2022/03/16 08:57:15;;;;;;;44.47;14.38;;;;;;;;;;5102008;28;20040;-61
2022/03/16 08:59:41;;;;;;;16.70;9.10;;;;;;;;;;5100021;28;20043;-61
2022/03/16 09:02:06;;;;;;;13.95;6.15;;;;;;;;;;5098290;28;20502;-61
2022/03/16 09:04:32;;;;;;;42.42;15.73;;;;;;;;;;5100155;28;20089;-60
2022/03/16 09:06:58;;;;;;;50.88;16.05;;;;;;;;;;5099842;28;20126;-61
2022/03/16 09:09:24;;;;;;;38.78;17.33;;;;;;;;;;5100166;27;20075;-61
2022/03/16 09:11:49;;;;;;;30.23;16.17;;;;;;;;;;5100604;28;20075;-60
2022/03/16 09:14:14;;;;;;;48.63;11.43;;;;;;;;;;5098724;28;20580;-61
2022/03/16 09:16:40;;;;;;;30.67;6.68;;;;;;;;;;5101740;28;20048;-60
2022/03/16 09:19:05;;;;;;;32.30;8.27;;;;;;;;;;5097182;28;20035;-60
2022/03/16 09:21:31;;;;;;;31.27;6.78;;;;;;;;;;5100535;28;20062;-61
2022/03/16 09:23:56;;;;;;;49.50;21.65;;;;;;;;;;5099887;28;20150;-61
2022/03/16 09:26:21;;;;;;;38.13;14.90;;;;;;;;;;5098299;28;20031;-61
2022/03/16 09:28:47;;;;;;;36.55;18.23;;;;;;;;;;5101354;28;20043;-61
2022/03/16 09:31:12;;;;;;;56.38;17.35;;;;;;;;;;5097435;28;20044;-60
2022/03/16 09:33:38;;;;;;;57.15;26.48;;;;;;;;;;5099124;28;20043;-60
2022/03/16 09:36:08;;;;;;;60.63;23.05;;;;;;;;;;5099632;28;20160;-60
2022/03/16 09:38:33;;;;;;;57.15;27.65;;;;;;;;;;5112258;27;20063;-61
2022/03/16 09:41:01;;;;;;;47.97;14.18;;;;;;;;;;5095017;28;20340;-61
2022/03/16 09:43:26;;;;;;;26.70;10.60;;;;;;;;;;5098073;28;20387;-61
2022/03/16 09:45:54;;;;;;;19.40;7.07;;;;;;;;;;5098623;28;20048;-61
2022/03/16 09:48:26;;;;;;;26.65;11.93;;;;;;;;;;5096270;28;20046;-61
2022/03/16 09:50:51;;;;;;;;;;;;;;;;;;5097785;28;20063;-61
2022/03/16 09:53:16;;;;;;;36.47;14.47;;;;;;;;;;5096839;28;19967;-61
2022/03/16 09:55:42;;;;;;;19.88;10.77;;;;;;;;;;5097100;28;20605;-61
2022/03/16 09:58:07;;;;;;;46.80;22.75;;;;;;;;;;5098063;28;20062;-60
2022/03/16 10:00:33;;;;;;;30.63;21.67;;;;;;;;;;5097547;28;20047;-61
2022/03/16 10:03:02;;;;;;;37.55;16.25;;;;;;;;;;5094877;28;20076;-61
2022/03/16 10:05:28;;;;;;;47.80;29.40;;;;;;;;;;5096021;28;20123;-60
2022/03/16 10:07:54;;;;;;;48.25;37.53;;;;;;;;;;5098554;28;20134;-60
2022/03/16 10:13:16;;;;;;;53.35;29.65;;;;;;;;;;5096577;28;20645;-60
2022/03/16 10:15:42;;;;;;;43.88;26.35;;;;;;;;;;5094767;28;20052;-60
2022/03/16 10:18:08;;;;;;;76.38;49.92;;;;;;;;;;5096400;28;20063;-60
2022/03/16 10:20:39;;;;;;;95.57;73.55;;;;;;;;;;5095125;28;20039;-60
2022/03/16 10:23:05;;;;;;;92.07;50.03;;;;;;;;;;5100407;28;20052;-60
2022/03/16 10:25:40;;;;;;;80.30;31.58;;;;;;;;;;5095633;28;20040;-60
2022/03/16 10:28:25;;;;;;;42.92;24.27;;;;;;;;;;5096578;28;20132;-60
2022/03/16 10:31:01;;;;;;;38.75;19.50;;;;;;;;;;5099052;28;20066;-61
2022/03/16 10:33:26;;;;;;;43.88;22.58;;;;;;;;;;5096237;28;20056;-59
2022/03/16 10:36:04;;;;;;;39.72;21.83;;;;;;;;;;5096133;28;20827;-60
2022/03/16 10:38:30;;;;;;;45.53;23.42;;;;;;;;;;5095126;28;20600;-60
2022/03/16 10:41:09;;;;;;;39.00;16.00;;;;;;;;;;5093397;28;20048;-61
2022/03/16 10:46:34;;;;;;;29.20;15.50;;;;;;;;;;5095136;28;20521;-59
2022/03/16 10:49:03;;;;;;;30.73;15.38;;;;;;;;;;5094950;28;20126;-59
2022/03/16 10:51:29;;;;;;;44.92;19.35;;;;;;;;;;5097038;28;20518;-59
2022/03/16 10:53:55;;;;;;;42.97;19.30;;;;;;;;;;5096206;28;20067;-59
2022/03/16 10:56:20;;;;;;;66.22;27.05;;;;;;;;;;5098673;28;20123;-59
2022/03/16 10:58:49;;;;;;;60.17;27.75;;;;;;;;;;5094662;28;20048;-59
2022/03/16 11:01:15;;;;;;;28.52;18.75;;;;;;;;;;5097160;28;20036;-60
2022/03/16 11:03:43;;;;;;;27.25;18.48;;;;;;;;;;5096444;28;20091;-60
2022/03/16 11:06:08;;;;;;;65.65;26.00;;;;;;;;;;5096694;28;20052;-60
2022/03/16 11:08:37;;;;;;;41.63;19.42;;;;;;;;;;5092203;28;20058;-59
2022/03/16 11:13:49;;;;;;;40.53;20.50;;;;;;;;;;5067523;28;20227;-53
2022/03/16 11:16:20;;;;;;;26.13;17.30;;;;;;;;;;5095934;28;20102;-57
2022/03/16 11:18:49;;;;;;;55.92;29.77;;;;;;;;;;5095412;28;20523;-65
2022/03/16 11:21:17;;;;;;;62.40;24.52;;;;;;;;;;5093331;28;20063;-61
2022/03/16 11:26:48;;;;;;;27.13;10.95;;;;;;;;;;5096201;28;20125;-60
2022/03/16 11:29:38;;;;;;;13.35;5.25;;;;;;;;;;5093373;28;20151;-60
2022/03/16 11:32:11;;;;;;;11.32;5.70;;;;;;;;;;5093873;28;20381;-60
2022/03/16 11:34:36;;;;;;;40.95;9.13;;;;;;;;;;5094713;28;20655;-59
2022/03/16 11:37:03;;;;;;;38.28;8.40;;;;;;;;;;5096388;28;20052;-60
2022/03/16 11:39:38;;;;;;;39.38;11.65;;;;;;;;;;5095239;28;20058;-59
2022/03/16 11:42:06;;;;;;;46.22;13.80;;;;;;;;;;5095818;28;20059;-59
2022/03/16 11:44:33;;;;;;;24.52;6.28;;;;;;;;;;5096655;28;20180;-60
2022/03/16 11:47:10;;;;;;;29.55;10.25;;;;;;;;;;5095310;28;20047;-60
2022/03/16 11:49:42;;;;;;;21.95;9.73;;;;;;;;;;5095295;28;20048;-60
2022/03/16 11:52:08;;;;;;;28.23;9.70;;;;;;;;;;5094695;28;20059;-60
2022/03/16 11:54:40;;;;;;;23.08;8.00;;;;;;;;;;5094408;28;20113;-60
2022/03/16 11:57:05;;;;;;;17.45;9.93;;;;;;;;;;5095765;28;20486;-60
2022/03/16 11:59:32;;;;;;;45.55;12.55;;;;;;;;;;5091977;28;20101;-60
2022/03/16 12:02:09;;;;;;;42.88;12.40;;;;;;;;;;5093602;28;20557;-59
2022/03/16 12:04:38;;;;;;;33.50;7.55;;;;;;;;;;5095495;28;20043;-60
2022/03/16 12:07:09;;;;;;;31.67;9.35;;;;;;;;;;5095337;28;20526;-60
2022/03/16 12:09:40;;;;;;;27.60;10.48;;;;;;;;;;5095803;28;20174;-60
2022/03/16 12:15:03;;;;;;;21.45;6.68;;;;;;;;;;5093952;28;20062;-59
2022/03/16 12:17:33;;;;;;;27.77;9.25;;;;;;;;;;5096652;28;20080;-62
2022/03/16 12:20:14;;;;;;;50.03;11.90;;;;;;;;;;5094346;28;20415;-61
2022/03/16 12:22:47;;;;;;;19.25;10.00;;;;;;;;;;5094919;28;20101;-61
2022/03/16 12:25:27;;;;;;;18.77;7.88;;;;;;;;;;5095660;28;20103;-61
2022/03/16 12:30:52;;;;;;;22.73;10.65;;;;;;;;;;5097615;28;20409;-61
2022/03/16 12:33:25;;;;;;;9.30;7.03;;;;;;;;;;5097453;28;20116;-61
2022/03/16 12:35:51;;;;;;;20.00;9.45;;;;;;;;;;5099374;28;20112;-62
2022/03/16 12:38:17;;;;;;;26.52;8.73;;;;;;;;;;5097402;28;20178;-61
2022/03/16 12:43:28;;;;;;;15.43;10.65;;;;;;;;;;5094261;28;20051;-59
2022/03/16 12:46:17;;;;;;;30.20;7.60;;;;;;;;;;5095227;28;20379;-61
2022/03/16 12:48:47;;;;;;;33.83;12.25;;;;;;;;;;5060331;28;20043;-61
2022/03/16 12:51:18;;;;;;;16.00;7.40;;;;;;;;;;5095312;28;20052;-61
2022/03/16 12:53:46;;;;;;;22.77;5.82;;;;;;;;;;5093368;28;20040;-61
2022/03/16 12:56:14;;;;;;;19.60;7.63;;;;;;;;;;5092767;28;20051;-61
2022/03/16 12:58:41;;;;;;;48.30;9.63;;;;;;;;;;5093411;28;20051;-61
2022/03/16 13:01:06;;;;;;;18.63;8.32;;;;;;;;;;5094263;28;20044;-61
2022/03/16 13:03:32;;;;;;;21.88;6.55;;;;;;;;;;5093961;28;20071;-61
2022/03/16 13:05:57;;;;;;;23.15;7.30;;;;;;;;;;5099687;28;20044;-61
2022/03/16 13:08:24;;;;;;;18.98;5.88;;;;;;;;;;5092576;28;20501;-60
2022/03/16 13:11:17;;;;;;;24.25;7.07;;;;;;;;;;5094280;28;20134;-61
2022/03/16 13:13:46;;;;;;;10.50;5.45;;;;;;;;;;5097263;28;20097;-61
2022/03/16 13:16:28;;;;;;;30.67;9.30;;;;;;;;;;5095682;28;20075;-61
2022/03/16 13:18:54;;;;;;;18.15;9.07;;;;;;;;;;5095863;28;20043;-61
2022/03/16 13:21:23;;;;;;;37.13;11.95;;;;;;;;;;5095599;28;20490;-61
2022/03/16 13:23:58;;;;;;;34.00;9.18;;;;;;;;;;5093336;28;20119;-60
2022/03/16 13:26:25;;;;;;;9.50;4.72;;;;;;;;;;5096611;28;20052;-60
2022/03/16 13:28:51;;;;;;;21.65;7.43;;;;;;;;;;5094228;28;20048;-60
2022/03/16 13:31:16;;;;;;;14.70;6.95;;;;;;;;;;5095483;28;20043;-60
2022/03/16 13:33:44;;;;;;;31.40;11.30;;;;;;;;;;5096432;28;20056;-59
2022/03/16 13:36:11;;;;;;;27.50;10.10;;;;;;;;;;5098230;28;20134;-47
2022/03/16 13:38:37;;;;;;;26.83;9.55;;;;;;;;;;5096803;28;20035;-60
2022/03/16 13:41:15;;;;;;;24.00;13.05;;;;;;;;;;5097649;28;20048;-61
2022/03/16 13:43:40;;;;;;;44.65;25.10;;;;;;;;;;5099400;28;20047;-62
2022/03/16 13:46:14;;;;;;;38.70;22.58;;;;;;;;;;5100092;28;20053;-59
2022/03/16 13:48:40;;;;;;;54.03;34.15;;;;;;;;;;5099304;28;20114;-64
2022/03/16 13:51:06;;;;;;;51.55;29.63;;;;;;;;;;5098576;28;20039;-66
2022/03/16 13:53:47;;;;;;;35.10;12.45;;;;;;;;;;5099609;28;20054;-59
2022/03/16 13:56:12;;;;;;;18.45;8.60;;;;;;;;;;5099774;28;20070;-61
2022/03/16 13:58:38;;;;;;;20.25;10.05;;;;;;;;;;5099528;28;20048;-62
2022/03/16 14:01:04;;;;;;;28.00;11.77;;;;;;;;;;5098339;28;20530;-56
2022/03/16 14:03:29;;;;;;;36.38;17.15;;;;;;;;;;5099566;28;20074;-62
2022/03/16 14:05:55;;;;;;;27.35;11.57;;;;;;;;;;5097015;28;20067;-59
2022/03/16 14:08:20;;;;;;;36.40;16.48;;;;;;;;;;5099316;28;20097;-58
2022/03/16 14:10:49;;;;;;;34.33;12.02;;;;;;;;;;5098034;28;20089;-58
2022/03/16 14:13:15;;;;;;;22.25;9.80;;;;;;;;;;5099209;28;20119;-58
2022/03/16 14:15:41;;;;;;;22.83;9.77;;;;;;;;;;5098226;28;20142;-58
2022/03/16 14:18:16;;;;;;;14.27;6.30;;;;;;;;;;5099499;28;20052;-59
2022/03/16 14:20:46;;;;;;;21.15;10.23;;;;;;;;;;5099348;28;20501;-58
2022/03/16 14:23:11;;;;;;;22.88;9.23;;;;;;;;;;5099921;28;20048;-57
2022/03/16 14:25:41;;;;;;;19.42;5.40;;;;;;;;;;5100409;28;20042;-57
2022/03/16 14:28:07;;;;;;;34.10;12.07;;;;;;;;;;5097853;28;20044;-58
2022/03/16 14:30:34;;;;;;;41.60;17.52;;;;;;;;;;5101402;28;20066;-58
2022/03/16 14:33:01;;;;;;;49.03;19.63;;;;;;;;;;5097952;28;20043;-59
2022/03/16 14:35:28;;;;;;;29.15;12.73;;;;;;;;;;5098476;28;20128;-59
2022/03/16 14:37:54;;;;;;;48.97;11.40;;;;;;;;;;5096549;28;20119;-59
2022/03/16 14:40:21;;;;;;;28.05;8.93;;;;;;;;;;5095302;28;21228;-59
2022/03/16 14:42:54;;;;;;;33.38;11.45;;;;;;;;;;5098470;28;20081;-59